Terminal Aerodrome Forecast
Issued by NWS

Home | Current Version | Previous Version | Text Only | Print | Product List | Glossary On
Versions: 1 2 3 4 5 6 7 8 9 10 11 12 13 14 15 16 17 18 19 20 21
000
FTUS43 KDLH 240500 RRA
TAFHYR
TAF
KHYR 240543Z 2406/2506 19017G22KT P6SM SCT025 BKN070 WS015/24050KT
      TEMPO 2406/2409 3SM -SHSN BKN025
     FM240900 24009KT 6SM -SN OVC025
     FM241400 28008KT P6SM BKN025
     FM241800 30012KT P6SM SCT025 BKN050
     FM242200 30009KT P6SM BKN080=

USA.gov is the U.S. government's official web portal to all federal, state and local government web resources and services.